Waimea, HI

08:14 AM HST am 25. Januar 2015 (GMT -1000)
Waimea, Hi 96796 | Change Station
CLOSE
Current Station
Persönliche Wetterstationen
Location: Waimea, HI
Höhe: 30 ft
Wetterstationen in der Umgebung
aktive Warnung: High Surf Advisory

Höhe 30 ft 21.95 °N, 159.67 °W | Updated 31 seconds ago

Overcast
Bedeckt
70.3 °F
gefühlte 76 °F
N
6.0
Wind Wechselnd Wind aus Ost-Nordost
Gusts 9.0 mph

Heute
Max. -- | schwach -- °F
--% Regenrisiko
Gestern
Max. -- | schwach -- °F
Precip. -- inch
7:18 AM 6:23 PM
Erstes Viertel, 34% visible
Druck 30.07 inch
Sichtweite 10.0 Meilen
Wolken Bedeckt 4700 ft
Hitzeindex 76 °F
Taupunkt 57 °F
Feuchtigkeit 62%
Regen 0.00 inch
Schneehöhe Nicht verfügbar..
UV 0 von 12
Pollen Nicht verfügbar..
Luftqualität Nicht verfügbar..
Flu Activity Nicht verfügbar..
METAR PHBK 251756Z AUTO 05003KT 10SM OVC047 21/13 A3006 RMK AO2 SLP181 6//// T02060128 10211 20189 53012 PNO $

More Conditions Fewer Conditions

Druck 30.07 inch
Sichtweite 10.0 Meilen
Wolken Bedeckt 4700 ft
Hitzeindex 76 °F
Taupunkt 57 °F
Feuchtigkeit 62%
Regen 0.00 inch
Schneehöhe Nicht verfügbar..
UV 0 von 12
Pollen Nicht verfügbar..
Luftqualität Nicht verfügbar..
Flu Activity Nicht verfügbar..
METAR PHBK 251756Z AUTO 05003KT 10SM OVC047 21/13 A3006 RMK AO2 SLP181 6//// T02060128 10211 20189 53012 PNO $

More Conditions Fewer Conditions

10-Day Weather Forecast

Almanac

Astronomie

Jan. 25, 2015 Aufgang Untergang
Genaue Zeit
Bürgerliche Dämmerung
Nautische Dämmerung
Astronomische Dämmerung
Mond
Länge des sichtbaren Lichts
Tageslänge
Tomorrow will be .
, % of the Moon is Illuminated

Heutige Rekorde

State Highs State Lows

Community

WunderPhotos

Upload Photos

1,790,011 Fotos hochgeladen!

WunderBlogs® & News

Nearby

Luftqualität

  Luftqualität LQ Index Schadstoff
Not available.

Schneehöhe

Station Depth Höhe

Erdbebenaktivität

Stadt Distance Mag. Time & Date
Minimum magnitude displayed is 2.5.

küstennahe Wassertemperaturen

Ort Temperatur

Wetterstationen in der Umgebung